Time;durP1;ratioP1;P1;durP2;ratioP2;P2;SDS_P1;SDS_P2;PMS_P1;PMS_P2;Temp;Humidity;BMP_temperature;BMP_pressure;BME280_temperature;BME280_humidity;BME280_pressure;Samples;Min_cycle;Max_cycle;Signal;HPM_P1;HPM_P2
2022/06/15 03:47:22;;;;;;;4.65;2.42;;;16.40;65.70;;;;;;4726813;30;20099;-78
2022/06/15 03:49:51;;;;;;;4.97;2.83;;;16.30;66.00;;;;;;4733848;30;20068;-80
2022/06/15 03:52:24;;;;;;;3.67;2.30;;;16.40;66.30;;;;;;4738099;30;20052;-79
2022/06/15 03:54:50;;;;;;;3.40;2.10;;;16.50;66.30;;;;;;4745491;30;20079;-79
2022/06/15 03:57:18;;;;;;;2.92;2.03;;;16.50;66.20;;;;;;4755682;30;20056;-79
2022/06/15 03:59:44;;;;;;;2.83;1.75;;;16.60;66.20;;;;;;4756418;30;20048;-82
2022/06/15 04:02:11;;;;;;;2.60;1.83;;;16.70;66.10;;;;;;4755825;30;20353;-80
2022/06/15 04:04:37;;;;;;;4.13;2.08;;;16.70;66.10;;;;;;4755450;30;20058;-79
2022/06/15 04:07:03;;;;;;;2.28;1.73;;;16.80;66.00;;;;;;4746803;30;20441;-79
2022/06/15 04:09:31;;;;;;;2.75;1.33;;;16.90;66.20;;;;;;4736839;30;20059;-85
2022/06/15 04:12:08;;;;;;;3.13;1.50;;;16.90;66.30;;;;;;4737343;30;20063;-83
2022/06/15 04:14:34;;;;;;;2.55;1.70;;;17.00;66.20;;;;;;4737710;30;20040;-83
2022/06/15 04:17:01;;;;;;;3.15;1.50;;;17.00;66.20;;;;;;4752343;30;20044;-83
2022/06/15 04:19:30;;;;;;;2.90;1.35;;;17.10;66.40;;;;;;4737811;30;20048;-83
2022/06/15 04:21:56;;;;;;;2.70;1.25;;;17.10;66.40;;;;;;4752415;30;20109;-82
2022/06/15 04:24:24;;;;;;;4.07;1.55;;;17.10;66.50;;;;;;4737904;30;20161;-82
2022/06/15 04:26:50;;;;;;;4.70;1.60;;;17.20;66.80;;;;;;4737502;30;20059;-85
2022/06/15 04:29:17;;;;;;;2.75;1.25;;;17.20;66.90;;;;;;4737397;30;20056;-85
2022/06/15 04:31:43;;;;;;;1.95;0.93;;;17.30;66.90;;;;;;4752197;30;20457;-85
2022/06/15 04:34:20;;;;;;;2.17;0.75;;;17.40;66.90;;;;;;4751755;30;20473;-84
2022/06/15 04:36:46;;;;;;;2.90;1.08;;;17.60;66.90;;;;;;4737376;30;20071;-86
2022/06/15 04:39:15;;;;;;;4.47;2.10;;;17.80;66.60;;;;;;4752169;30;20060;-84
2022/06/15 04:41:41;;;;;;;5.03;2.35;;;17.90;65.80;;;;;;4736701;30;20161;-84
2022/06/15 04:44:10;;;;;;;4.43;1.02;;;17.90;65.70;;;;;;4722562;30;20127;-79
2022/06/15 04:46:36;;;;;;;5.30;1.08;;;17.90;66.30;;;;;;4736874;30;20057;-80
2022/06/15 04:49:02;;;;;;;5.22;1.17;;;18.10;66.50;;;;;;4737133;30;20140;-80
2022/06/15 04:51:29;;;;;;;4.93;2.20;;;18.10;66.60;;;;;;4737164;30;20044;-80
2022/06/15 04:53:57;;;;;;;4.50;2.75;;;18.20;66.60;;;;;;4736998;30;20054;-77
2022/06/15 04:56:24;;;;;;;5.40;3.35;;;18.20;66.50;;;;;;4737825;30;20049;-79
2022/06/15 04:58:50;;;;;;;5.32;3.10;;;18.20;65.90;;;;;;4736941;30;20052;-76
2022/06/15 05:01:16;;;;;;;6.10;2.90;;;18.20;65.70;;;;;;4738020;30;20056;-82
2022/06/15 05:03:43;;;;;;;5.47;2.85;;;18.20;65.70;;;;;;4722538;30;20488;-81
2022/06/15 05:06:40;;;;;;;5.30;2.22;;;18.20;65.50;;;;;;4722138;30;20407;-81
2022/06/15 05:09:10;;;;;;;6.38;3.30;;;18.30;66.50;;;;;;4734428;30;20049;-85
2022/06/15 05:11:37;;;;;;;7.00;4.28;;;18.30;66.70;;;;;;4736573;30;20069;-81
2022/06/15 05:14:06;;;;;;;19.42;4.80;;;18.30;66.10;;;;;;4722391;30;20088;-80
2022/06/15 05:16:44;;;;;;;12.23;4.05;;;18.30;66.40;;;;;;4736212;30;20045;-81
2022/06/15 05:19:10;;;;;;;18.17;3.80;;;18.20;66.00;;;;;;4736318;30;20059;-84
2022/06/15 05:21:44;;;;;;;12.57;3.72;;;18.20;66.10;;;;;;4736992;30;20085;-79
2022/06/15 05:24:11;;;;;;;7.68;3.50;;;18.20;66.50;;;;;;4736467;30;20472;-80
2022/06/15 05:26:39;;;;;;;10.52;3.15;;;18.30;66.30;;;;;;4719452;30;20044;-83
2022/06/15 05:29:06;;;;;;;7.45;2.75;;;18.20;66.20;;;;;;4721956;30;20172;-83
2022/06/15 05:31:32;;;;;;;11.15;3.75;;;18.20;66.30;;;;;;4722608;30;20044;-82
2022/06/15 05:33:58;;;;;;;7.38;2.50;;;18.20;66.50;;;;;;4750708;30;20109;-82
2022/06/15 05:36:35;;;;;;;9.23;2.97;;;18.20;66.70;;;;;;4735575;30;20044;-81
2022/06/15 05:39:04;;;;;;;12.95;3.05;;;18.20;66.50;;;;;;4765714;30;20062;-86
2022/06/15 05:41:30;;;;;;;16.98;4.53;;;18.20;67.40;;;;;;4737430;30;20052;-81
2022/06/15 05:43:58;;;;;;;15.23;5.03;;;18.30;67.60;;;;;;4736677;30;20097;-80
2022/06/15 05:46:30;;;;;;;16.27;5.32;;;18.30;67.50;;;;;;4721306;30;20060;-80
2022/06/15 05:48:57;;;;;;;10.73;4.05;;;18.20;67.70;;;;;;4765624;30;20060;-79
2022/06/15 05:51:24;;;;;;;12.32;4.25;;;18.20;67.80;;;;;;4737342;30;20053;-81
2022/06/15 05:53:50;;;;;;;13.25;3.65;;;18.20;67.80;;;;;;4737400;30;20092;-78
2022/06/15 05:56:16;;;;;;;9.93;3.30;;;18.20;67.70;;;;;;4737008;30;20135;-79
2022/06/15 05:58:42;;;;;;;6.00;3.30;;;18.20;67.70;;;;;;4765434;30;20135;-80
2022/06/15 06:01:18;;;;;;;11.18;3.15;;;18.20;67.70;;;;;;4750314;30;20140;-80
2022/06/15 06:03:44;;;;;;;7.00;3.03;;;18.20;67.70;;;;;;4736158;30;20063;-78
2022/06/15 06:06:11;;;;;;;6.55;2.63;;;18.20;67.70;;;;;;4736156;30;20144;-78
2022/06/15 06:08:36;;;;;;;5.55;2.50;;;18.20;67.70;;;;;;4736210;30;20052;-79
2022/06/15 06:11:03;;;;;;;5.65;2.40;;;18.20;67.60;;;;;;4736211;30;20057;-79
2022/06/15 06:13:29;;;;;;;7.35;2.13;;;18.30;67.70;;;;;;4735687;30;20096;-81
2022/06/15 06:15:56;;;;;;;5.50;2.25;;;18.30;67.70;;;;;;4737340;30;20095;-79
2022/06/15 06:18:25;;;;;;;7.55;1.85;;;18.30;67.70;;;;;;4736630;30;20354;-80
2022/06/15 06:20:52;;;;;;;5.90;1.83;;;18.30;67.60;;;;;;4736763;30;20049;-79
2022/06/15 06:23:18;;;;;;;8.38;2.15;;;18.30;67.60;;;;;;4736007;30;20060;-80
2022/06/15 06:25:47;;;;;;;6.25;1.80;;;18.40;67.70;;;;;;4736668;30;20118;-79
2022/06/15 06:28:29;;;;;;;6.15;1.67;;;18.40;67.60;;;;;;4751174;30;20108;-79
2022/06/15 06:30:59;;;;;;;4.20;1.48;;;18.40;67.50;;;;;;4735285;30;20059;-79
2022/06/15 06:33:26;;;;;;;4.50;1.77;;;18.40;67.60;;;;;;4719913;30;20057;-80
2022/06/15 06:35:57;;;;;;;5.55;1.92;;;18.40;67.60;;;;;;4719263;30;20082;-79
2022/06/15 06:38:24;;;;;;;4.07;1.60;;;18.40;67.60;;;;;;4718939;30;20063;-79
2022/06/15 06:40:58;;;;;;;6.88;2.05;;;18.40;67.60;;;;;;4719182;30;20064;-80
2022/06/15 06:43:42;;;;;;;8.52;3.33;;;18.50;67.60;;;;;;4732363;30;20065;-86
2022/06/15 06:46:08;;;;;;;6.70;3.30;;;18.50;67.60;;;;;;4717949;30;20099;-86
2022/06/15 06:48:34;;;;;;;4.28;2.67;;;18.50;67.80;;;;;;4732540;30;20085;-77
2022/06/15 06:50:59;;;;;;;6.90;2.05;;;18.40;68.00;;;;;;4718067;30;20053;-79
2022/06/15 07:39:42;;;;;;;9.50;3.10;;;19.10;68.30;;;;;;5605538;24;20060;-80
2022/06/15 07:42:09;;;;;;;8.90;3.50;;;19.10;68.80;;;;;;4739477;30;20068;-78
2022/06/15 07:44:36;;;;;;;9.70;2.63;;;19.20;69.30;;;;;;4738848;30;20060;-79
2022/06/15 07:49:55;;;;;;;9.43;2.42;;;19.20;70.00;;;;;;4738836;30;20107;-80
2022/06/15 07:52:39;;;;;;;7.63;2.40;;;19.30;69.30;;;;;;4738065;30;20052;-78
2022/06/15 07:55:06;;;;;;;;;;;19.20;69.10;;;;;;4739705;30;20209;-78
2022/06/15 07:57:31;;;;;;;7.25;2.75;;;19.30;69.00;;;;;;4752537;30;19926;-80
2022/06/15 07:59:57;;;;;;;8.98;2.28;;;19.30;69.00;;;;;;4738149;30;20056;-79
2022/06/15 08:02:23;;;;;;;5.45;1.92;;;19.30;68.70;;;;;;4738501;30;20161;-80
2022/06/15 08:04:49;;;;;;;6.57;2.40;;;19.30;68.40;;;;;;4738093;30;20056;-81
2022/06/15 08:07:17;;;;;;;4.22;1.50;;;19.30;68.20;;;;;;4738695;30;20452;-78
2022/06/15 08:09:43;;;;;;;3.42;1.27;;;19.30;67.80;;;;;;4738261;30;20064;-78
2022/06/15 08:12:11;;;;;;;8.73;1.33;;;19.30;67.50;;;;;;4738889;30;20062;-79
2022/06/15 08:14:39;;;;;;;6.32;1.48;;;19.40;67.50;;;;;;4738602;30;20380;-79
2022/06/15 08:17:08;;;;;;;6.18;2.15;;;19.40;67.20;;;;;;4737720;30;20350;-78
2022/06/15 08:19:37;;;;;;;5.28;1.35;;;19.40;67.00;;;;;;4737583;30;20061;-77
2022/06/15 08:22:03;;;;;;;4.55;1.15;;;19.40;66.90;;;;;;4737647;30;20094;-77
2022/06/15 08:24:31;;;;;;;5.90;1.30;;;19.40;66.70;;;;;;4737963;30;20136;-77
2022/06/15 08:26:57;;;;;;;6.05;1.58;;;19.50;66.80;;;;;;4738613;30;20095;-77
2022/06/15 08:29:23;;;;;;;4.50;1.45;;;19.50;66.90;;;;;;4738663;30;20053;-78
2022/06/15 08:31:49;;;;;;;5.65;1.83;;;19.50;67.00;;;;;;4738593;30;20052;-78
2022/06/15 08:34:15;;;;;;;6.88;1.65;;;19.50;66.80;;;;;;4738436;30;20071;-78
2022/06/15 08:36:40;;;;;;;4.43;1.48;;;19.50;66.70;;;;;;4737635;30;20056;-79
2022/06/15 08:39:06;;;;;;;7.15;1.80;;;19.50;66.40;;;;;;4738442;30;20056;-75
2022/06/15 08:41:59;;;;;;;4.57;1.02;;;19.50;66.20;;;;;;4750742;30;20155;-77
2022/06/15 08:44:40;;;;;;;3.30;1.52;;;19.60;66.40;;;;;;4755883;30;20063;-79
2022/06/15 08:47:35;;;;;;;7.50;1.80;;;19.60;66.40;;;;;;4754937;30;20135;-79
2022/06/15 08:50:22;;;;;;;4.60;1.80;;;19.60;66.50;;;;;;4755630;30;20048;-78
2022/06/15 08:53:04;;;;;;;4.97;1.30;;;19.60;66.00;;;;;;4754878;30;20472;-79
2022/06/15 08:55:49;;;;;;;5.15;1.25;;;19.60;65.80;;;;;;4755226;30;20107;-78
2022/06/15 08:58:25;;;;;;;4.45;1.73;;;19.70;65.70;;;;;;4756040;30;20373;-77
2022/06/15 09:00:54;;;;;;;4.28;1.30;;;19.70;65.80;;;;;;4755416;30;20056;-78
2022/06/15 09:03:30;;;;;;;2.65;1.30;;;19.60;65.40;;;;;;4755416;30;20060;-78
2022/06/15 09:06:19;;;;;;;5.65;1.42;;;19.70;65.60;;;;;;4754364;30;20056;-77
2022/06/15 09:09:02;;;;;;;3.00;0.85;;;19.70;65.70;;;;;;4755517;30;20370;-79
2022/06/15 09:11:34;;;;;;;;;;;19.70;65.80;;;;;;4755692;30;20060;-80
2022/06/15 09:14:34;;;;;;;2.60;0.90;;;19.70;66.10;;;;;;4754497;30;19934;-79
2022/06/15 09:17:13;;;;;;;3.78;0.95;;;19.70;65.80;;;;;;4754270;30;20071;-80
2022/06/15 09:19:46;;;;;;;3.80;0.90;;;19.80;65.70;;;;;;4755126;30;20080;-79
2022/06/15 09:22:17;;;;;;;2.47;0.95;;;19.80;65.40;;;;;;4755510;30;20143;-79
2022/06/15 09:25:26;;;;;;;2.53;0.85;;;19.80;65.40;;;;;;4755086;30;20362;-80
2022/06/15 09:28:28;;;;;;;4.40;1.52;;;19.80;65.60;;;;;;4718034;30;20140;-79
2022/06/15 09:31:00;;;;;;;2.55;0.88;;;19.80;65.20;;;;;;4675510;30;20065;-78
2022/06/15 09:33:33;;;;;;;3.17;1.30;;;19.80;65.20;;;;;;4746840;30;20400;-81
2022/06/15 09:36:09;;;;;;;4.28;1.05;;;19.80;65.00;;;;;;4754977;30;20056;-77
2022/06/15 09:38:37;;;;;;;2.05;1.10;;;19.80;64.90;;;;;;4754851;30;20052;-81
2022/06/15 09:41:15;;;;;;;3.05;0.93;;;19.80;65.50;;;;;;4764158;30;20067;-79
2022/06/15 09:43:46;;;;;;;2.95;0.98;;;19.80;65.10;;;;;;4772904;30;20376;-76
2022/06/15 09:46:29;;;;;;;3.60;1.27;;;19.90;65.40;;;;;;4755192;30;20055;-86
2022/06/15 09:49:03;;;;;;;2.65;1.35;;;19.80;65.60;;;;;;4772175;30;20051;-83
2022/06/15 09:51:39;;;;;;;3.95;0.90;;;19.90;66.00;;;;;;4742734;30;20091;-82
2022/06/15 09:54:12;;;;;;;2.97;0.85;;;19.90;66.00;;;;;;4772221;30;20059;-82
2022/06/15 09:56:38;;;;;;;3.25;1.00;;;20.00;66.30;;;;;;4772143;30;20094;-80
2022/06/15 09:59:14;;;;;;;2.70;0.80;;;20.00;66.40;;;;;;4772372;30;20071;-73
2022/06/15 10:01:45;;;;;;;3.58;0.90;;;20.00;66.70;;;;;;4772408;30;20127;-77
2022/06/15 10:04:32;;;;;;;3.25;1.00;;;20.00;66.50;;;;;;4772119;30;20050;-75
2022/06/15 10:07:03;;;;;;;2.58;1.20;;;20.10;66.00;;;;;;4772117;30;20117;-75
2022/06/15 10:09:33;;;;;;;5.28;1.23;;;20.10;66.10;;;;;;4772169;30;20053;-75
2022/06/15 10:15:12;;;;;;;3.42;0.95;;;20.10;66.40;;;;;;4756087;30;20067;-77
2022/06/15 10:17:41;;;;;;;2.75;1.40;;;20.10;65.90;;;;;;4770954;30;20048;-79
2022/06/15 10:20:20;;;;;;;3.13;1.70;;;20.10;65.60;;;;;;4771614;30;20052;-79
2022/06/15 10:22:52;;;;;;;3.22;1.63;;;20.00;64.70;;;;;;4756382;30;20048;-78
2022/06/15 10:25:19;;;;;;;4.15;1.75;;;20.00;64.20;;;;;;4771945;30;20062;-77
2022/06/15 10:27:45;;;;;;;2.60;1.48;;;20.00;64.10;;;;;;4772334;30;20056;-77
2022/06/15 10:30:11;;;;;;;4.38;1.85;;;20.00;63.70;;;;;;4771625;30;20177;-79
2022/06/15 10:32:54;;;;;;;4.57;1.88;;;19.90;63.40;;;;;;4771907;30;20051;-78
2022/06/15 10:35:20;;;;;;;3.95;1.45;;;20.00;63.40;;;;;;4756072;30;20059;-78
2022/06/15 10:37:58;;;;;;;3.72;1.35;;;19.90;64.00;;;;;;4769553;30;20474;-76
2022/06/15 10:40:31;;;;;;;2.47;1.10;;;19.90;64.50;;;;;;4771959;30;20068;-78
2022/06/15 10:43:18;;;;;;;2.60;1.13;;;20.00;64.80;;;;;;4770935;30;20361;-77
2022/06/15 10:45:52;;;;;;;4.78;1.15;;;20.00;64.70;;;;;;4774247;30;20131;-79
2022/06/15 10:48:23;;;;;;;4.53;1.42;;;20.00;64.30;;;;;;4775110;30;20460;-79
2022/06/15 10:50:52;;;;;;;3.13;1.90;;;20.00;64.00;;;;;;4775348;30;20059;-79
2022/06/15 10:53:27;;;;;;;3.40;1.63;;;20.00;64.00;;;;;;4759294;30;20052;-79
2022/06/15 11:02:07;;;;;;;1.88;1.27;;;20.00;64.90;;;;;;4775043;30;20059;-79
2022/06/15 11:04:45;;;;;;;2.40;1.05;;;20.00;65.00;;;;;;4774886;30;20055;-78
2022/06/15 11:07:22;;;;;;;4.20;1.50;;;20.00;65.00;;;;;;4774955;30;20055;-79
2022/06/15 11:09:54;;;;;;;3.67;1.20;;;20.00;65.10;;;;;;4773963;30;20492;-78
2022/06/15 11:12:43;;;;;;;2.33;0.90;;;20.00;65.20;;;;;;4759863;30;20120;-81
2022/06/15 11:15:20;;;;;;;2.80;0.98;;;20.00;65.30;;;;;;4759438;30;20074;-78
2022/06/15 11:18:05;;;;;;;1.85;1.08;;;20.10;65.30;;;;;;4759316;30;20091;-78
2022/06/15 11:20:59;;;;;;;3.35;1.08;;;20.10;65.40;;;;;;4774546;30;20116;-79
2022/06/15 11:23:34;;;;;;;3.92;1.00;;;20.10;65.40;;;;;;4774519;30;20483;-78
2022/06/15 11:29:16;;;;;;;3.00;1.30;;;20.10;65.30;;;;;;4774695;30;20098;-78
2022/06/15 11:31:43;;;;;;;1.65;0.88;;;20.10;65.30;;;;;;4774507;30;20125;-77
2022/06/15 11:34:19;;;;;;;2.25;1.17;;;20.10;65.30;;;;;;4774684;30;20128;-79
2022/06/15 11:37:11;;;;;;;4.82;1.10;;;20.10;65.30;;;;;;4758926;30;20104;-79
2022/06/15 11:39:43;;;;;;;3.38;1.02;;;20.10;65.20;;;;;;4774028;30;20055;-78
2022/06/15 11:42:12;;;;;;;2.65;1.00;;;20.10;65.30;;;;;;4758850;30;20486;-77
2022/06/15 11:44:43;;;;;;;2.00;1.00;;;20.10;65.30;;;;;;4759245;30;20059;-79
2022/06/15 11:47:30;;;;;;;2.05;0.75;;;20.10;65.20;;;;;;4774159;30;20499;-78
2022/06/15 11:50:14;;;;;;;2.58;0.93;;;20.10;65.10;;;;;;4774981;30;20059;-79
2022/06/15 11:53:07;;;;;;;2.03;1.35;;;20.10;65.50;;;;;;4774280;30;20044;-78
2022/06/15 11:56:03;;;;;;;1.98;1.00;;;20.10;65.10;;;;;;4774360;30;20366;-78
2022/06/15 11:58:39;;;;;;;1.10;1.00;;;20.10;65.10;;;;;;4759420;30;20507;-77
2022/06/15 12:01:14;;;;;;;3.65;1.10;;;20.10;65.10;;;;;;4773923;30;20056;-77
2022/06/15 12:04:16;;;;;;;2.72;0.95;;;20.10;65.00;;;;;;4758877;30;20120;-78
2022/06/15 12:07:00;;;;;;;3.88;1.60;;;20.10;65.10;;;;;;4774271;30;20051;-78
2022/06/15 12:09:35;;;;;;;1.65;0.90;;;20.10;65.10;;;;;;4774023;30;20059;-79
2022/06/15 12:12:38;;;;;;;3.22;1.30;;;20.10;65.10;;;;;;4774212;30;20055;-76
2022/06/15 12:15:34;;;;;;;2.33;0.82;;;20.10;65.30;;;;;;4773991;30;20120;-79
2022/06/15 12:18:34;;;;;;;1.45;0.70;;;20.10;65.30;;;;;;4758411;30;20071;-79
2022/06/15 12:21:20;;;;;;;1.20;0.80;;;20.20;65.40;;;;;;4758410;30;20056;-77
2022/06/15 12:24:01;;;;;;;2.53;1.27;;;20.10;65.20;;;;;;4773835;30;20125;-79
2022/06/15 12:26:31;;;;;;;2.40;0.80;;;20.20;65.10;;;;;;4774394;30;20090;-78
2022/06/15 12:29:09;;;;;;;2.85;0.90;;;20.20;65.00;;;;;;4758128;30;20051;-78
2022/06/15 12:31:54;;;;;;;1.65;0.90;;;20.20;65.10;;;;;;4773904;30;20134;-78
2022/06/15 12:34:30;;;;;;;1.90;0.70;;;20.10;65.00;;;;;;4773318;30;20063;-79
2022/06/15 12:37:05;;;;;;;17.20;3.25;;;20.20;65.30;;;;;;4758698;30;20063;-74
2022/06/15 12:39:49;;;;;;;9.80;1.63;;;20.10;65.40;;;;;;4758124;30;20051;-78
2022/06/15 12:42:17;;;;;;;11.85;1.95;;;20.10;64.80;;;;;;4772898;30;20062;-76
2022/06/15 12:45:07;;;;;;;11.13;2.00;;;20.10;64.90;;;;;;4773796;30;20418;-77
2022/06/15 12:47:37;;;;;;;10.10;2.65;;;20.20;64.90;;;;;;4773879;30;20123;-76
2022/06/15 12:50:40;;;;;;;10.43;2.30;;;20.20;63.90;;;;;;4773655;30;20052;-77
2022/06/15 12:53:23;;;;;;;9.13;2.22;;;20.10;62.90;;;;;;4773464;30;20052;-78
2022/06/15 12:56:03;;;;;;;9.57;1.90;;;20.10;62.70;;;;;;4773759;30;20368;-77
2022/06/15 12:58:34;;;;;;;22.60;2.88;;;20.10;62.70;;;;;;4772200;30;20450;-76
2022/06/15 13:01:08;;;;;;;14.43;3.50;;;20.10;63.60;;;;;;4756844;30;20139;-77
2022/06/15 13:03:33;;;;;;;14.82;3.15;;;20.10;63.50;;;;;;4772962;30;20056;-78
2022/06/15 13:06:23;;;;;;;10.77;2.97;;;20.10;63.60;;;;;;4773616;30;20066;-81
2022/06/15 13:09:01;;;;;;;10.45;3.10;;;20.10;63.90;;;;;;4772373;30;20063;-82
2022/06/15 13:11:29;;;;;;;12.32;3.00;;;20.20;63.70;;;;;;4757719;30;20406;-80
2022/06/15 13:13:55;;;;;;;8.40;2.50;;;20.20;63.80;;;;;;4771705;30;20095;-81
2022/06/15 13:16:41;;;;;;;10.52;2.63;;;20.20;63.80;;;;;;4757101;30;20102;-82
2022/06/15 13:19:26;;;;;;;13.98;2.90;;;20.20;64.00;;;;;;4757743;30;20146;-80
2022/06/15 13:22:03;;;;;;;8.90;2.65;;;20.20;64.10;;;;;;4757523;30;20056;-79
2022/06/15 13:24:28;;;;;;;11.75;3.05;;;20.20;64.20;;;;;;4772763;30;20372;-81
2022/06/15 13:27:04;;;;;;;13.63;3.50;;;20.20;64.60;;;;;;4742376;30;20130;-82
2022/06/15 13:29:32;;;;;;;15.43;3.67;;;20.20;64.80;;;;;;4772735;30;20043;-79
2022/06/15 13:32:03;;;;;;;22.02;3.20;;;20.20;64.80;;;;;;4756755;30;20047;-78
2022/06/15 13:34:32;;;;;;;18.95;3.05;;;20.20;64.90;;;;;;4772645;30;20039;-79
2022/06/15 13:37:20;;;;;;;18.67;3.25;;;20.20;64.80;;;;;;4772536;30;20152;-79
2022/06/15 13:39:54;;;;;;;19.95;4.18;;;20.20;65.00;;;;;;4772397;30;20063;-78
2022/06/15 13:42:20;;;;;;;19.02;3.53;;;20.20;65.00;;;;;;4772534;30;20059;-80
2022/06/15 13:45:01;;;;;;;20.65;3.70;;;20.20;65.20;;;;;;4756524;30;20082;-77
2022/06/15 13:47:38;;;;;;;23.27;3.38;;;20.20;65.00;;;;;;4771601;30;20129;-80
2022/06/15 13:50:06;;;;;;;27.45;4.28;;;20.20;64.80;;;;;;4772259;30;20115;-78
2022/06/15 13:52:34;;;;;;;20.35;3.38;;;20.20;64.70;;;;;;4772525;30;20056;-79
2022/06/15 13:55:31;;;;;;;16.85;3.03;;;20.20;64.80;;;;;;4756658;30;20055;-78
2022/06/15 13:58:34;;;;;;;15.95;3.05;;;20.20;64.90;;;;;;4756997;30;20381;-78
2022/06/15 14:01:15;;;;;;;12.90;2.60;;;20.30;64.90;;;;;;4772223;30;20048;-77
2022/06/15 14:04:08;;;;;;;11.02;2.83;;;20.30;65.00;;;;;;4772120;30;20456;-77
2022/06/15 14:07:01;;;;;;;15.93;3.43;;;20.30;64.90;;;;;;4756912;30;20063;-77
2022/06/15 14:09:45;;;;;;;8.33;2.63;;;20.30;64.90;;;;;;4756582;30;20131;-77
2022/06/15 14:12:30;;;;;;;;;;;20.30;65.00;;;;;;4772431;30;20316;-78
2022/06/15 14:15:30;;;;;;;10.02;2.25;;;20.30;65.10;;;;;;4772452;30;19926;-79
2022/06/15 14:18:15;;;;;;;10.80;2.20;;;20.30;65.40;;;;;;4753218;30;20150;-79
2022/06/15 14:20:45;;;;;;;12.43;2.20;;;20.30;65.30;;;;;;4771917;30;20098;-79
2022/06/15 14:23:13;;;;;;;8.20;2.38;;;20.30;65.30;;;;;;4756799;30;20063;-78
2022/06/15 14:25:47;;;;;;;9.75;2.47;;;20.30;65.40;;;;;;4771747;30;20093;-77
2022/06/15 14:28:16;;;;;;;5.43;1.95;;;20.30;65.70;;;;;;4771941;30;20059;-77
2022/06/15 14:30:47;;;;;;;7.72;2.00;;;20.30;65.90;;;;;;4772396;30;20134;-79
2022/06/15 14:33:20;;;;;;;9.25;2.13;;;20.30;65.80;;;;;;4756067;30;20056;-78
2022/06/15 14:36:02;;;;;;;4.80;1.58;;;20.30;66.00;;;;;;4771883;30;20056;-78
2022/06/15 14:38:29;;;;;;;7.65;2.13;;;20.40;66.00;;;;;;4771996;30;20056;-78
2022/06/15 14:41:19;;;;;;;6.00;2.03;;;20.30;65.80;;;;;;4755854;30;20059;-80
2022/06/15 14:43:48;;;;;;;8.70;2.17;;;20.30;66.10;;;;;;4756094;30;20095;-77
2022/06/15 14:46:24;;;;;;;9.27;1.88;;;20.30;66.00;;;;;;4771564;30;20051;-79
2022/06/15 14:48:54;;;;;;;18.90;3.45;;;20.40;64.90;;;;;;4769405;30;20043;-76
2022/06/15 14:51:25;;;;;;;9.00;2.28;;;20.30;64.60;;;;;;4766262;30;20048;-75
2022/06/15 14:53:54;;;;;;;10.70;2.75;;;20.30;64.90;;;;;;4771963;30;20417;-74
2022/06/15 14:56:22;;;;;;;14.43;3.05;;;20.30;64.90;;;;;;4771920;30;20156;-76
2022/06/15 14:59:10;;;;;;;14.02;2.85;;;20.30;64.60;;;;;;4772128;30;20056;-77
2022/06/15 15:01:59;;;;;;;13.93;2.83;;;20.30;63.80;;;;;;4771781;30;20062;-76
2022/06/15 15:04:25;;;;;;;8.98;2.58;;;20.30;63.20;;;;;;4771618;30;20066;-76
2022/06/15 15:10:23;;;;;;;4.63;1.58;;;20.30;61.50;;;;;;4754810;30;20056;-75
2022/06/15 15:12:49;;;;;;;7.30;1.90;;;20.40;58.40;;;;;;4754158;30;20477;-76
2022/06/15 15:15:16;;;;;;;6.82;1.50;;;20.30;58.10;;;;;;4753704;30;20137;-75
2022/06/15 15:17:58;;;;;;;5.68;1.98;;;20.40;58.00;;;;;;4753703;30;20058;-76
2022/06/15 15:20:36;;;;;;;4.20;1.73;;;20.40;58.00;;;;;;4754054;30;20080;-75
2022/06/15 15:23:04;;;;;;;5.78;2.05;;;20.40;58.60;;;;;;4753022;30;20068;-75
2022/06/15 15:25:38;;;;;;;5.95;1.60;;;20.40;59.10;;;;;;4738278;30;20048;-76
2022/06/15 15:39:45;;;;;;;10.63;2.67;;;20.40;61.80;;;;;;4757048;30;20430;-75
2022/06/15 15:42:13;;;;;;;8.48;2.50;;;20.40;62.10;;;;;;4756394;30;20060;-75
2022/06/15 15:44:40;;;;;;;11.68;2.97;;;20.50;62.50;;;;;;4726138;30;20044;-74
2022/06/15 15:47:07;;;;;;;8.82;3.10;;;20.40;62.60;;;;;;4756629;30;20083;-76
2022/06/15 15:49:34;;;;;;;13.10;3.15;;;20.40;62.90;;;;;;4756915;30;20056;-74
2022/06/15 15:52:01;;;;;;;17.27;2.60;;;20.40;62.40;;;;;;4756906;30;20373;-77
2022/06/15 15:54:28;;;;;;;16.30;3.15;;;20.40;61.30;;;;;;4756850;30;20056;-77
2022/06/15 15:56:56;;;;;;;14.77;2.85;;;20.50;60.70;;;;;;4756303;30;20056;-79
2022/06/15 15:59:25;;;;;;;33.70;4.55;;;20.50;60.30;;;;;;4755063;30;20071;-76
2022/06/15 16:01:53;;;;;;;15.07;3.08;;;20.50;60.00;;;;;;4740018;30;20484;-78
2022/06/15 16:04:21;;;;;;;11.10;2.63;;;20.50;61.50;;;;;;4756440;30;20479;-75
2022/06/15 16:06:50;;;;;;;10.13;2.45;;;20.50;62.60;;;;;;4756110;30;20067;-77
2022/06/15 16:09:18;;;;;;;15.68;2.95;;;20.60;63.00;;;;;;4740575;30;20473;-76
2022/06/15 16:11:43;;;;;;;12.40;2.75;;;20.60;63.70;;;;;;4756249;30;20480;-76
2022/06/15 16:14:09;;;;;;;19.17;2.95;;;20.60;64.40;;;;;;4756226;30;20059;-77
2022/06/15 16:16:35;;;;;;;10.35;3.40;;;20.70;65.10;;;;;;4756606;30;20058;-75
2022/06/15 16:19:05;;;;;;;19.67;3.95;;;20.70;65.20;;;;;;4773957;30;20079;-76
2022/06/15 16:21:32;;;;;;;8.85;2.30;;;20.70;61.90;;;;;;4773431;30;20060;-74
2022/06/15 16:23:58;;;;;;;10.20;2.72;;;20.70;60.50;;;;;;4773617;30;20452;-76
2022/06/15 16:26:28;;;;;;;10.85;2.13;;;20.70;58.70;;;;;;4773821;30;20087;-77
2022/06/15 16:28:55;;;;;;;5.00;2.05;;;20.80;57.50;;;;;;4773816;30;20127;-76
2022/06/15 16:31:22;;;;;;;9.80;2.35;;;20.80;56.40;;;;;;4773760;30;20395;-76
2022/06/15 16:33:48;;;;;;;4.50;1.50;;;20.80;55.60;;;;;;4773849;30;20083;-76
2022/06/15 16:36:15;;;;;;;4.90;1.50;;;20.80;54.90;;;;;;4773877;30;20094;-74
2022/06/15 16:38:41;;;;;;;5.35;1.90;;;20.90;55.00;;;;;;4773404;30;20044;-76
2022/06/15 16:41:10;;;;;;;7.95;1.92;;;20.80;54.80;;;;;;4773495;30;20384;-76
2022/06/15 16:43:49;;;;;;;7.13;1.77;;;20.90;55.10;;;;;;4773877;30;20052;-77
2022/06/15 16:46:19;;;;;;;7.97;1.92;;;20.90;55.50;;;;;;4773646;30;20054;-79
2022/06/15 16:48:45;;;;;;;6.38;1.73;;;20.90;55.80;;;;;;4757587;30;20055;-76
2022/06/15 16:51:14;;;;;;;4.38;1.63;;;20.90;56.80;;;;;;4757607;30;20434;-76
2022/06/15 16:53:40;;;;;;;7.10;1.88;;;20.90;54.60;;;;;;4773851;30;20483;-78
2022/06/15 16:56:11;;;;;;;8.27;1.88;;;20.90;54.50;;;;;;4773604;30;20051;-77
2022/06/15 16:58:39;;;;;;;4.78;2.20;;;20.90;54.90;;;;;;4773325;30;20129;-78
2022/06/15 17:01:06;;;;;;;5.45;1.52;;;20.90;55.80;;;;;;4774174;30;20089;-77
2022/06/15 17:03:32;;;;;;;5.68;1.77;;;21.00;56.40;;;;;;4773639;30;20059;-77
2022/06/15 17:06:01;;;;;;;3.70;1.40;;;20.90;55.90;;;;;;4773209;30;20063;-78
2022/06/15 17:08:34;;;;;;;6.05;1.42;;;20.90;55.90;;;;;;4773468;30;20121;-78
2022/06/15 17:11:02;;;;;;;4.53;1.43;;;21.00;55.80;;;;;;4772968;30;20345;-77
2022/06/15 17:13:31;;;;;;;9.55;2.10;;;21.00;55.90;;;;;;4772968;30;20115;-80
2022/06/15 17:15:58;;;;;;;7.57;1.77;;;21.00;56.50;;;;;;4772712;30;20035;-80
2022/06/15 17:18:25;;;;;;;7.22;2.17;;;21.00;57.10;;;;;;4772937;30;20051;-80
2022/06/15 17:20:51;;;;;;;11.90;2.20;;;21.00;57.90;;;;;;4773062;30;20055;-78
2022/06/15 17:23:20;;;;;;;17.58;2.97;;;21.00;58.30;;;;;;4772736;30;20047;-78
2022/06/15 17:30:10;;;;;;;7.13;1.95;;;21.00;59.00;;;;;;4718502;30;20052;-80
2022/06/15 17:33:16;;;;;;;14.13;2.53;;;21.00;60.30;;;;;;4683176;30;20141;-81
2022/06/15 17:56:55;;;;;;;10.32;2.08;;;20.90;61.40;;;;;;4683296;30;20115;-81
2022/06/15 19:26:29;;;;;;;4.13;2.72;;;20.80;61.10;;;;;;4827172;24;20063;-75
2022/06/15 19:28:56;;;;;;;6.57;3.47;;;20.70;59.30;;;;;;4792683;30;20137;-76
2022/06/15 19:31:24;;;;;;;4.10;3.10;;;20.50;58.30;;;;;;4792982;29;20574;-79
2022/06/15 19:33:51;;;;;;;8.73;3.78;;;20.40;57.60;;;;;;4792964;29;20101;-77
2022/06/15 19:36:18;;;;;;;4.10;3.63;;;20.20;57.60;;;;;;4781557;29;20052;-75
2022/06/15 19:38:46;;;;;;;4.88;3.25;;;20.10;58.00;;;;;;4780154;30;20116;-79
2022/06/15 19:41:12;;;;;;;5.13;3.90;;;20.00;58.40;;;;;;4791744;30;20047;-79
2022/06/15 19:43:41;;;;;;;6.10;3.83;;;19.90;58.80;;;;;;4792460;30;20131;-77
2022/06/15 19:46:07;;;;;;;5.93;4.07;;;19.80;58.90;;;;;;4792304;29;20047;-78
2022/06/15 19:48:34;;;;;;;8.02;3.95;;;19.80;59.00;;;;;;4792862;29;20071;-79
2022/06/15 19:51:02;;;;;;;5.88;3.97;;;19.70;59.10;;;;;;4777112;30;20074;-78
2022/06/15 19:53:28;;;;;;;8.13;4.20;;;19.60;59.30;;;;;;4776323;30;20051;-79
2022/06/15 19:55:54;;;;;;;6.30;3.95;;;19.60;59.50;;;;;;4782378;29;20059;-76
2022/06/15 19:58:20;;;;;;;5.68;4.85;;;19.50;59.70;;;;;;4774357;30;20048;-78
2022/06/15 20:00:55;;;;;;;7.18;4.40;;;19.40;60.00;;;;;;4774887;30;20055;-82
2022/06/15 20:03:20;;;;;;;8.32;4.00;;;19.40;60.20;;;;;;4774338;30;20044;-80
2022/06/15 20:05:46;;;;;;;8.20;5.30;;;19.40;60.30;;;;;;4783696;30;20047;-79
2022/06/15 20:08:13;;;;;;;5.47;4.25;;;19.40;60.50;;;;;;4806338;29;20597;-80
2022/06/15 20:10:39;;;;;;;7.20;4.80;;;19.30;60.30;;;;;;4792342;29;20094;-80